EZY96ME EGKK-LOWI
Flight info
| Callsign | EZY96ME |
|---|---|
| Flight time | N/A |
| Altitude | 39000 |
| Route | MIMFO Y312 DVR UL9 KONAN UL607 MATUG DCT AMASI DCT BOMBI/N0460F310 T104 WLD M867 BAVAX Z106 MANAL M736 TULSI TULSI3A |
| Aircraft | A20N/M-SDE2E3FGHIRWXY/LB1 |
Departure
| Time | 2026-04-18 07:02 |
|---|---|
| Airport | London Gatwick Airport (EGKK) |
Arrival
| Time | N/A |
|---|---|
| Airport | Innsbruck Airport (LOWI) |
| Time | Latitude | Longitude | Altitude | Speed | Heading |
|---|---|---|---|---|---|
| 2026-04-18 06:50 | 51.15871 | -0.17420 | 211 ft | 0 kts | 348° |
| 2026-04-18 06:56 | 51.15868 | -0.17419 | 208 ft | 3 kts | 348° |
| 2026-04-18 06:57 | 51.15850 | -0.17413 | 211 ft | 3 kts | 348° |
| 2026-04-18 06:57 | 51.15814 | -0.17401 | 214 ft | 3 kts | 348° |
| 2026-04-18 06:57 | 51.15800 | -0.17396 | 208 ft | 0 kts | 339° |
| 2026-04-18 06:58 | 51.15784 | -0.17375 | 215 ft | 3 kts | 264° |
| 2026-04-18 06:58 | 51.15785 | -0.17367 | 213 ft | 0 kts | 250° |
| 2026-04-18 07:00 | 51.15764 | -0.17475 | 219 ft | 13 kts | 242° |
| 2026-04-18 07:00 | 51.15686 | -0.17491 | 217 ft | 15 kts | 166° |
| 2026-04-18 07:00 | 51.15542 | -0.17443 | 212 ft | 27 kts | 169° |
| 2026-04-18 07:00 | 51.15365 | -0.17380 | 216 ft | 25 kts | 171° |
| 2026-04-18 07:01 | 51.15224 | -0.17294 | 210 ft | 16 kts | 143° |
| 2026-04-18 07:01 | 51.15111 | -0.17158 | 217 ft | 15 kts | 151° |
| 2026-04-18 07:01 | 51.15070 | -0.17200 | 210 ft | 9 kts | 259° |
| 2026-04-18 07:01 | 51.15025 | -0.17521 | 217 ft | 61 kts | 257° |
| 2026-04-18 07:02 | 51.14885 | -0.18541 | 214 ft | 127 kts | 258° |
| 2026-04-18 07:02 | 51.14646 | -0.20163 | 389 ft | 159 kts | 256° |
| 2026-04-18 07:02 | 51.14365 | -0.21771 | 1122 ft | 151 kts | 257° |
| 2026-04-18 07:02 | 51.14123 | -0.23482 | 1625 ft | 170 kts | 261° |
| 2026-04-18 07:03 | 51.13871 | -0.25486 | 2006 ft | 195 kts | 261° |
| 2026-04-18 07:03 | 51.13700 | -0.27691 | 2587 ft | 207 kts | 273° |
| 2026-04-18 07:03 | 51.14052 | -0.29924 | 3338 ft | 215 kts | 297° |
| 2026-04-18 07:03 | 51.15049 | -0.31678 | 3829 ft | 219 kts | 325° |
| 2026-04-18 07:04 | 51.16518 | -0.32410 | 3983 ft | 229 kts | 356° |
| 2026-04-18 07:04 | 51.18069 | -0.31772 | 3997 ft | 237 kts | 29° |
| 2026-04-18 07:04 | 51.19203 | -0.29854 | 3985 ft | 243 kts | 63° |
| 2026-04-18 07:04 | 51.19725 | -0.27281 | 3998 ft | 246 kts | 77° |
| 2026-04-18 07:05 | 51.20065 | -0.24602 | 3998 ft | 247 kts | 78° |
| 2026-04-18 07:05 | 51.20387 | -0.21908 | 3997 ft | 247 kts | 79° |
| 2026-04-18 07:05 | 51.20713 | -0.19180 | 4000 ft | 260 kts | 78° |
| 2026-04-18 07:05 | 51.21067 | -0.16285 | 3985 ft | 275 kts | 78° |
| 2026-04-18 07:06 | 51.21442 | -0.13255 | 4159 ft | 282 kts | 78° |
| 2026-04-18 07:06 | 51.21826 | -0.10168 | 4725 ft | 284 kts | 78° |
| 2026-04-18 07:06 | 51.22213 | -0.07081 | 4967 ft | 284 kts | 79° |
| 2026-04-18 07:06 | 51.22600 | -0.03981 | 4991 ft | 286 kts | 78° |
| 2026-04-18 07:07 | 51.22989 | -0.00864 | 4989 ft | 286 kts | 79° |
| 2026-04-18 07:07 | 51.23379 | 0.02259 | 4849 ft | 287 kts | 79° |
| 2026-04-18 07:07 | 51.23770 | 0.05404 | 4821 ft | 289 kts | 79° |
| 2026-04-18 07:07 | 51.24161 | 0.08545 | 4795 ft | 289 kts | 79° |
| 2026-04-18 07:08 | 51.24551 | 0.11689 | 4772 ft | 289 kts | 79° |
| 2026-04-18 07:08 | 51.24938 | 0.14792 | 4747 ft | 288 kts | 79° |
| 2026-04-18 07:08 | 51.25314 | 0.17938 | 4729 ft | 288 kts | 82° |
| 2026-04-18 07:08 | 51.25394 | 0.21119 | 4724 ft | 287 kts | 95° |
| 2026-04-18 07:09 | 51.25200 | 0.24304 | 5088 ft | 290 kts | 99° |
| 2026-04-18 07:09 | 51.24954 | 0.27515 | 5513 ft | 290 kts | 100° |
| 2026-04-18 07:09 | 51.24705 | 0.30713 | 5624 ft | 291 kts | 100° |
| 2026-04-18 07:09 | 51.24456 | 0.33920 | 5613 ft | 291 kts | 100° |
| 2026-04-18 07:10 | 51.24210 | 0.37099 | 5624 ft | 291 kts | 100° |
| 2026-04-18 07:10 | 51.23962 | 0.40311 | 5918 ft | 292 kts | 100° |
| 2026-04-18 07:10 | 51.23714 | 0.43530 | 6474 ft | 293 kts | 101° |
| 2026-04-18 07:10 | 51.23464 | 0.46771 | 7010 ft | 295 kts | 101° |
| 2026-04-18 07:11 | 51.23212 | 0.50031 | 7554 ft | 297 kts | 101° |
| 2026-04-18 07:11 | 51.22957 | 0.53321 | 8118 ft | 299 kts | 101° |
| 2026-04-18 07:11 | 51.22699 | 0.56637 | 8706 ft | 302 kts | 100° |
| 2026-04-18 07:11 | 51.22438 | 0.59975 | 9316 ft | 304 kts | 100° |
| 2026-04-18 07:12 | 51.22175 | 0.63342 | 9863 ft | 307 kts | 100° |
| 2026-04-18 07:12 | 51.21904 | 0.66784 | 10332 ft | 321 kts | 100° |
| 2026-04-18 07:12 | 51.21616 | 0.70392 | 10800 ft | 341 kts | 100° |
| 2026-04-18 07:12 | 51.21306 | 0.74251 | 11272 ft | 360 kts | 100° |
| 2026-04-18 07:13 | 51.20980 | 0.78315 | 11754 ft | 378 kts | 100° |
| 2026-04-18 07:13 | 51.20642 | 0.82540 | 12250 ft | 388 kts | 99° |
| 2026-04-18 07:13 | 51.20301 | 0.86835 | 12754 ft | 391 kts | 99° |
| 2026-04-18 07:13 | 51.19959 | 0.91153 | 13264 ft | 394 kts | 99° |
| 2026-04-18 07:14 | 51.19607 | 0.95540 | 13773 ft | 403 kts | 100° |
| 2026-04-18 07:14 | 51.19252 | 0.99927 | 14617 ft | 405 kts | 100° |
| 2026-04-18 07:14 | 51.18888 | 1.04398 | 15399 ft | 409 kts | 100° |
| 2026-04-18 07:14 | 51.18516 | 1.08931 | 16136 ft | 414 kts | 100° |
| 2026-04-18 07:15 | 51.18137 | 1.13516 | 16852 ft | 419 kts | 100° |
| 2026-04-18 07:15 | 51.17752 | 1.18143 | 17556 ft | 424 kts | 100° |
| 2026-04-18 07:15 | 51.17362 | 1.22825 | 18247 ft | 429 kts | 100° |
| 2026-04-18 07:15 | 51.16964 | 1.27573 | 18863 ft | 434 kts | 100° |
| 2026-04-18 07:16 | 51.16560 | 1.32368 | 19456 ft | 439 kts | 101° |
| 2026-04-18 07:16 | 51.16177 | 1.37233 | 20040 ft | 444 kts | 99° |
| 2026-04-18 07:16 | 51.15886 | 1.42098 | 20629 ft | 449 kts | 98° |
| 2026-04-18 07:16 | 51.15645 | 1.47080 | 21191 ft | 453 kts | 97° |
| 2026-04-18 07:17 | 51.15425 | 1.52110 | 21766 ft | 458 kts | 97° |
| 2026-04-18 07:17 | 51.15203 | 1.57199 | 22326 ft | 462 kts | 98° |
| 2026-04-18 07:17 | 51.14973 | 1.62327 | 22880 ft | 466 kts | 98° |
| 2026-04-18 07:17 | 51.14730 | 1.67506 | 23400 ft | 470 kts | 98° |
| 2026-04-18 07:18 | 51.14476 | 1.72714 | 23899 ft | 474 kts | 99° |
| 2026-04-18 07:18 | 51.14214 | 1.77978 | 24315 ft | 478 kts | 99° |
| 2026-04-18 07:18 | 51.13944 | 1.83278 | 24730 ft | 482 kts | 99° |
| 2026-04-18 07:18 | 51.13669 | 1.88629 | 25146 ft | 486 kts | 99° |
| 2026-04-18 07:19 | 51.13390 | 1.94009 | 25582 ft | 489 kts | 99° |
| 2026-04-18 07:19 | 51.13108 | 1.99417 | 26016 ft | 492 kts | 99° |
| 2026-04-18 07:19 | 51.12821 | 2.04864 | 26399 ft | 496 kts | 99° |
| 2026-04-18 07:19 | 51.12529 | 2.10346 | 26782 ft | 499 kts | 99° |
| 2026-04-18 07:20 | 51.12236 | 2.15810 | 27163 ft | 502 kts | 99° |
| 2026-04-18 07:20 | 51.11935 | 2.21373 | 27534 ft | 506 kts | 99° |
| 2026-04-18 07:20 | 51.11630 | 2.26971 | 27899 ft | 509 kts | 99° |
| 2026-04-18 07:20 | 51.11320 | 2.32605 | 28257 ft | 512 kts | 99° |
| 2026-04-18 07:21 | 51.11005 | 2.38274 | 28597 ft | 515 kts | 99° |
| 2026-04-18 07:21 | 51.10689 | 2.43938 | 29181 ft | 512 kts | 99° |
| 2026-04-18 07:21 | 51.10373 | 2.49579 | 29700 ft | 512 kts | 99° |
| 2026-04-18 07:21 | 51.10052 | 2.55222 | 30147 ft | 512 kts | 99° |
| 2026-04-18 07:22 | 51.09729 | 2.60809 | 30537 ft | 512 kts | 100° |
| 2026-04-18 07:22 | 51.09126 | 2.66356 | 30940 ft | 505 kts | 109° |
| 2026-04-18 07:22 | 51.08276 | 2.71761 | 31382 ft | 502 kts | 110° |
| 2026-04-18 07:22 | 51.07360 | 2.77122 | 31810 ft | 500 kts | 111° |
| 2026-04-18 07:23 | 51.06407 | 2.82440 | 32212 ft | 499 kts | 112° |
| 2026-04-18 07:23 | 51.05436 | 2.87734 | 32620 ft | 496 kts | 111° |
| 2026-04-18 07:23 | 51.04476 | 2.92923 | 33116 ft | 493 kts | 111° |
| 2026-04-18 07:23 | 51.03508 | 2.98150 | 33503 ft | 492 kts | 111° |
| 2026-04-18 07:24 | 51.02539 | 3.03378 | 33848 ft | 492 kts | 111° |
| 2026-04-18 07:24 | 51.01574 | 3.08593 | 34195 ft | 491 kts | 111° |
| 2026-04-18 07:24 | 51.00612 | 3.13792 | 34503 ft | 490 kts | 111° |
| 2026-04-18 07:24 | 50.99650 | 3.18983 | 34806 ft | 489 kts | 111° |
| 2026-04-18 07:25 | 50.98692 | 3.24151 | 35115 ft | 488 kts | 111° |
| 2026-04-18 07:25 | 50.97746 | 3.29238 | 35400 ft | 487 kts | 111° |
| 2026-04-18 07:25 | 50.96789 | 3.34376 | 35717 ft | 484 kts | 111° |
| 2026-04-18 07:25 | 50.95837 | 3.39473 | 36079 ft | 481 kts | 111° |
| 2026-04-18 07:26 | 50.94885 | 3.44554 | 36328 ft | 480 kts | 112° |
| 2026-04-18 07:26 | 50.93927 | 3.49641 | 36528 ft | 481 kts | 112° |
| 2026-04-18 07:26 | 50.92966 | 3.54730 | 36745 ft | 481 kts | 112° |
| 2026-04-18 07:26 | 50.92006 | 3.59801 | 36967 ft | 481 kts | 112° |
| 2026-04-18 07:27 | 50.91044 | 3.64867 | 37215 ft | 480 kts | 112° |
| 2026-04-18 07:27 | 50.90073 | 3.69941 | 37434 ft | 480 kts | 112° |
| 2026-04-18 07:27 | 50.89100 | 3.74991 | 37658 ft | 479 kts | 112° |
| 2026-04-18 07:27 | 50.88126 | 3.80033 | 37875 ft | 478 kts | 112° |
| 2026-04-18 07:28 | 50.87162 | 3.85002 | 38099 ft | 478 kts | 112° |
| 2026-04-18 07:28 | 50.86187 | 3.90022 | 38306 ft | 477 kts | 112° |
| 2026-04-18 07:28 | 50.85207 | 3.95051 | 38500 ft | 477 kts | 112° |
| 2026-04-18 07:28 | 50.84227 | 4.00069 | 38694 ft | 477 kts | 112° |
| 2026-04-18 07:29 | 50.83246 | 4.05078 | 38871 ft | 477 kts | 112° |
| 2026-04-18 07:29 | 50.82264 | 4.10085 | 39016 ft | 476 kts | 112° |
| 2026-04-18 07:29 | 50.81280 | 4.15086 | 39139 ft | 476 kts | 112° |
| 2026-04-18 07:29 | 50.80292 | 4.20094 | 39203 ft | 478 kts | 112° |
| 2026-04-18 07:30 | 50.78306 | 4.30127 | 39210 ft | 477 kts | 112° |
| 2026-04-18 07:30 | 50.76332 | 4.40053 | 39211 ft | 476 kts | 112° |
| 2026-04-18 07:31 | 50.74339 | 4.50017 | 39211 ft | 476 kts | 112° |
| 2026-04-18 07:31 | 50.72336 | 4.59990 | 39209 ft | 476 kts | 112° |
| 2026-04-18 07:32 | 50.70391 | 4.69924 | 39200 ft | 476 kts | 112° |
| 2026-04-18 07:32 | 50.68456 | 4.79931 | 39206 ft | 477 kts | 112° |
| 2026-04-18 07:33 | 50.66510 | 4.89939 | 39206 ft | 477 kts | 112° |
| 2026-04-18 07:33 | 50.64504 | 4.99921 | 39207 ft | 477 kts | 112° |
| 2026-04-18 07:34 | 50.62453 | 5.09856 | 39206 ft | 477 kts | 113° |
| 2026-04-18 07:34 | 50.60394 | 5.19777 | 39206 ft | 477 kts | 112° |
| 2026-04-18 07:35 | 50.58344 | 5.29631 | 39206 ft | 476 kts | 112° |
| 2026-04-18 07:35 | 50.56277 | 5.39533 | 39205 ft | 477 kts | 112° |
| 2026-04-18 07:36 | 50.54199 | 5.49441 | 39206 ft | 476 kts | 112° |
| 2026-04-18 07:36 | 50.52117 | 5.59338 | 39197 ft | 477 kts | 111° |
| 2026-04-18 07:37 | 50.50563 | 5.69464 | 39200 ft | 479 kts | 105° |
| 2026-04-18 07:37 | 50.49214 | 5.79734 | 39203 ft | 480 kts | 105° |
| 2026-04-18 07:38 | 50.47893 | 5.90027 | 39204 ft | 480 kts | 105° |
| 2026-04-18 07:38 | 50.46558 | 6.00303 | 39198 ft | 480 kts | 105° |
| 2026-04-18 07:39 | 50.45205 | 6.10570 | 39203 ft | 480 kts | 105° |
| 2026-04-18 07:39 | 50.43840 | 6.20824 | 39189 ft | 480 kts | 105° |
| 2026-04-18 07:40 | 50.42477 | 6.30998 | 39185 ft | 480 kts | 105° |
| 2026-04-18 07:40 | 50.41089 | 6.41252 | 39187 ft | 480 kts | 105° |
| 2026-04-18 07:41 | 50.39681 | 6.51473 | 39182 ft | 480 kts | 105° |
| 2026-04-18 07:41 | 50.38263 | 6.61678 | 39183 ft | 479 kts | 105° |
| 2026-04-18 07:42 | 50.36836 | 6.71887 | 39203 ft | 479 kts | 105° |
| 2026-04-18 07:42 | 50.35400 | 6.82094 | 39199 ft | 479 kts | 105° |
| 2026-04-18 07:43 | 50.33957 | 6.92291 | 39213 ft | 479 kts | 105° |
| 2026-04-18 07:43 | 50.32517 | 7.02396 | 39205 ft | 477 kts | 105° |
| 2026-04-18 07:44 | 50.31067 | 7.12507 | 39210 ft | 475 kts | 105° |
| 2026-04-18 07:44 | 50.29608 | 7.22604 | 39212 ft | 475 kts | 105° |
| 2026-04-18 07:45 | 50.28141 | 7.32691 | 39204 ft | 475 kts | 105° |
| 2026-04-18 07:45 | 50.26668 | 7.42760 | 39202 ft | 474 kts | 104° |
| 2026-04-18 07:46 | 50.25193 | 7.52777 | 39199 ft | 472 kts | 105° |
| 2026-04-18 07:46 | 50.23711 | 7.62775 | 39196 ft | 472 kts | 105° |
| 2026-04-18 07:47 | 50.22225 | 7.72755 | 39196 ft | 472 kts | 105° |
| 2026-04-18 07:47 | 50.20740 | 7.82677 | 39187 ft | 472 kts | 104° |
| 2026-04-18 07:48 | 50.19491 | 7.90976 | 39192 ft | 471 kts | 104° |
| 2026-04-18 07:48 | 50.17737 | 8.02561 | 39191 ft | 471 kts | 104° |
| 2026-04-18 07:49 | 50.16221 | 8.12496 | 39191 ft | 471 kts | 104° |
| 2026-04-18 07:49 | 50.14952 | 8.20769 | 39191 ft | 471 kts | 105° |
| 2026-04-18 07:50 | 50.13421 | 8.30691 | 39190 ft | 471 kts | 104° |
| 2026-04-18 07:50 | 50.11880 | 8.40620 | 39193 ft | 470 kts | 104° |
| 2026-04-18 07:51 | 50.10342 | 8.50472 | 39182 ft | 470 kts | 104° |
| 2026-04-18 07:51 | 50.08786 | 8.60372 | 39185 ft | 470 kts | 104° |
| 2026-04-18 07:52 | 50.07221 | 8.70270 | 39184 ft | 470 kts | 105° |
| 2026-04-18 07:52 | 50.04784 | 8.79638 | 39183 ft | 466 kts | 124° |
| 2026-04-18 07:53 | 50.02870 | 8.83673 | 39184 ft | 462 kts | 135° |
| 2026-04-18 07:53 | 50.00665 | 8.87221 | 39184 ft | 461 kts | 138° |
| 2026-04-18 07:53 | 49.95953 | 8.94012 | 39182 ft | 461 kts | 141° |
| 2026-04-18 07:54 | 49.91151 | 9.00639 | 39181 ft | 461 kts | 141° |
| 2026-04-18 07:54 | 49.86388 | 9.07242 | 39182 ft | 462 kts | 140° |
| 2026-04-18 07:55 | 49.81616 | 9.13906 | 39177 ft | 462 kts | 140° |
| 2026-04-18 07:55 | 49.76832 | 9.20593 | 39176 ft | 462 kts | 140° |
| 2026-04-18 07:56 | 49.72084 | 9.27214 | 39179 ft | 462 kts | 140° |
| 2026-04-18 07:56 | 49.67305 | 9.33858 | 39180 ft | 462 kts | 140° |
| 2026-04-18 07:57 | 49.62541 | 9.40530 | 39175 ft | 463 kts | 136° |
| 2026-04-18 07:57 | 49.58162 | 9.47857 | 39174 ft | 464 kts | 133° |
| 2026-04-18 07:58 | 49.51770 | 9.59059 | 39185 ft | 464 kts | 133° |
| 2026-04-18 07:59 | 49.47540 | 9.66487 | 39187 ft | 464 kts | 133° |
| 2026-04-18 07:59 | 49.43275 | 9.73933 | 39183 ft | 464 kts | 133° |
| 2026-04-18 08:00 | 49.38996 | 9.81369 | 39186 ft | 464 kts | 133° |
| 2026-04-18 08:00 | 49.34722 | 9.88762 | 39183 ft | 464 kts | 133° |
| 2026-04-18 08:01 | 49.30433 | 9.96151 | 39181 ft | 464 kts | 133° |
| 2026-04-18 08:01 | 49.26135 | 10.03537 | 39186 ft | 464 kts | 133° |
| 2026-04-18 08:02 | 49.21836 | 10.10904 | 39183 ft | 464 kts | 133° |
| 2026-04-18 08:02 | 49.17535 | 10.18259 | 39197 ft | 464 kts | 133° |
| 2026-04-18 08:03 | 49.13238 | 10.25543 | 39200 ft | 463 kts | 134° |
| 2026-04-18 08:03 | 49.08815 | 10.32714 | 39221 ft | 463 kts | 135° |
| 2026-04-18 08:04 | 49.04355 | 10.39831 | 39215 ft | 463 kts | 135° |
| 2026-04-18 08:04 | 48.99899 | 10.46938 | 39230 ft | 464 kts | 135° |
| 2026-04-18 08:05 | 48.95437 | 10.54045 | 39230 ft | 464 kts | 135° |
| 2026-04-18 08:05 | 48.91003 | 10.61098 | 39231 ft | 464 kts | 135° |
| 2026-04-18 08:06 | 48.86531 | 10.68196 | 39233 ft | 465 kts | 135° |
| 2026-04-18 08:06 | 48.82041 | 10.75304 | 39223 ft | 465 kts | 135° |
| 2026-04-18 08:07 | 48.77550 | 10.82375 | 39219 ft | 465 kts | 135° |
| 2026-04-18 08:07 | 48.73053 | 10.89422 | 39213 ft | 465 kts | 135° |
| 2026-04-18 08:08 | 48.68575 | 10.96418 | 39215 ft | 465 kts | 135° |
| 2026-04-18 08:08 | 48.64057 | 11.03448 | 39210 ft | 465 kts | 135° |
| 2026-04-18 08:09 | 48.59534 | 11.10467 | 39209 ft | 465 kts | 135° |
| 2026-04-18 08:09 | 48.55128 | 11.17634 | 39209 ft | 466 kts | 132° |
| 2026-04-18 08:10 | 48.50913 | 11.25001 | 38996 ft | 466 kts | 131° |
| 2026-04-18 08:10 | 48.48803 | 11.28719 | 38735 ft | 466 kts | 131° |
| 2026-04-18 08:10 | 48.46689 | 11.32425 | 38453 ft | 466 kts | 131° |
| 2026-04-18 08:10 | 48.44570 | 11.36121 | 38166 ft | 466 kts | 131° |
| 2026-04-18 08:11 | 48.42443 | 11.39810 | 37504 ft | 467 kts | 131° |
| 2026-04-18 08:11 | 48.40298 | 11.43514 | 36708 ft | 471 kts | 132° |
| 2026-04-18 08:11 | 48.38132 | 11.47243 | 35943 ft | 474 kts | 132° |
| 2026-04-18 08:11 | 48.35977 | 11.50947 | 35204 ft | 477 kts | 132° |
| 2026-04-18 08:12 | 48.33750 | 11.54767 | 34435 ft | 481 kts | 132° |
| 2026-04-18 08:12 | 48.31560 | 11.58518 | 33559 ft | 485 kts | 132° |
| 2026-04-18 08:12 | 48.29324 | 11.62328 | 32781 ft | 486 kts | 134° |
| 2026-04-18 08:12 | 48.26782 | 11.65676 | 31897 ft | 487 kts | 147° |
| 2026-04-18 08:13 | 48.23784 | 11.68050 | 31107 ft | 485 kts | 162° |
| 2026-04-18 08:13 | 48.20596 | 11.69527 | 30798 ft | 474 kts | 166° |
| 2026-04-18 08:13 | 48.17451 | 11.70762 | 30593 ft | 462 kts | 168° |
| 2026-04-18 08:13 | 48.14355 | 11.71844 | 30408 ft | 450 kts | 169° |
| 2026-04-18 08:14 | 48.11333 | 11.72842 | 30203 ft | 439 kts | 169° |
| 2026-04-18 08:14 | 48.08391 | 11.73799 | 30018 ft | 428 kts | 169° |
| 2026-04-18 08:14 | 48.05555 | 11.74727 | 29828 ft | 417 kts | 169° |
| 2026-04-18 08:14 | 48.02753 | 11.75656 | 29633 ft | 407 kts | 169° |
| 2026-04-18 08:15 | 48.00024 | 11.76572 | 29446 ft | 397 kts | 169° |
| 2026-04-18 08:15 | 47.97364 | 11.77472 | 29276 ft | 387 kts | 169° |
| 2026-04-18 08:15 | 47.94764 | 11.78356 | 29120 ft | 377 kts | 169° |
| 2026-04-18 08:15 | 47.92239 | 11.79208 | 28967 ft | 367 kts | 171° |
| 2026-04-18 08:16 | 47.89744 | 11.79700 | 28758 ft | 357 kts | 180° |
| 2026-04-18 08:16 | 47.87286 | 11.79739 | 28444 ft | 351 kts | 183° |
| 2026-04-18 08:16 | 47.84856 | 11.79662 | 28098 ft | 348 kts | 184° |
| 2026-04-18 08:16 | 47.82475 | 11.79552 | 27676 ft | 344 kts | 184° |
| 2026-04-18 08:17 | 47.80084 | 11.79427 | 27229 ft | 342 kts | 185° |
| 2026-04-18 08:17 | 47.77713 | 11.79299 | 26836 ft | 340 kts | 185° |
| 2026-04-18 08:17 | 47.75356 | 11.79168 | 26489 ft | 338 kts | 185° |
| 2026-04-18 08:17 | 47.73014 | 11.79038 | 26182 ft | 336 kts | 184° |
| 2026-04-18 08:18 | 47.70683 | 11.79123 | 25784 ft | 336 kts | 175° |
| 2026-04-18 08:18 | 47.68378 | 11.79873 | 25100 ft | 343 kts | 163° |
| 2026-04-18 08:18 | 47.66107 | 11.81069 | 24389 ft | 349 kts | 160° |
| 2026-04-18 08:18 | 47.63852 | 11.82351 | 23711 ft | 353 kts | 160° |
| 2026-04-18 08:19 | 47.61543 | 11.83668 | 22881 ft | 357 kts | 160° |
| 2026-04-18 08:19 | 47.59208 | 11.84991 | 22074 ft | 361 kts | 160° |
| 2026-04-18 08:19 | 47.56856 | 11.86317 | 21298 ft | 363 kts | 160° |
| 2026-04-18 08:19 | 47.54492 | 11.87643 | 20537 ft | 364 kts | 160° |
| 2026-04-18 08:20 | 47.52122 | 11.88969 | 19809 ft | 365 kts | 160° |
| 2026-04-18 08:20 | 47.49746 | 11.90296 | 19093 ft | 365 kts | 160° |
| 2026-04-18 08:20 | 47.47371 | 11.91620 | 18366 ft | 365 kts | 160° |
| 2026-04-18 08:20 | 47.44945 | 11.92705 | 17567 ft | 362 kts | 172° |
| 2026-04-18 08:21 | 47.42454 | 11.92707 | 16797 ft | 357 kts | 193° |
| 2026-04-18 08:21 | 47.40148 | 11.91448 | 16024 ft | 351 kts | 210° |
| 2026-04-18 08:21 | 47.38035 | 11.89669 | 15285 ft | 348 kts | 213° |
| 2026-04-18 08:21 | 47.35965 | 11.87811 | 14564 ft | 347 kts | 214° |
| 2026-04-18 08:22 | 47.34137 | 11.85632 | 13839 ft | 340 kts | 234° |
| 2026-04-18 08:22 | 47.33046 | 11.82609 | 13032 ft | 332 kts | 253° |
| 2026-04-18 08:22 | 47.32520 | 11.79304 | 12122 ft | 331 kts | 262° |
| 2026-04-18 08:22 | 47.32143 | 11.75941 | 11244 ft | 333 kts | 261° |
| 2026-04-18 08:23 | 47.31683 | 11.72588 | 10369 ft | 333 kts | 258° |
| 2026-04-18 08:23 | 47.31160 | 11.69271 | 9454 ft | 332 kts | 257° |
| 2026-04-18 08:23 | 47.30652 | 11.65962 | 8537 ft | 330 kts | 258° |
| 2026-04-18 08:23 | 47.30165 | 11.62660 | 7638 ft | 328 kts | 258° |
| 2026-04-18 08:24 | 47.29673 | 11.59395 | 6773 ft | 325 kts | 257° |
| 2026-04-18 08:24 | 47.29182 | 11.56146 | 5882 ft | 323 kts | 257° |
| 2026-04-18 08:24 | 47.28704 | 11.52959 | 4942 ft | 320 kts | 257° |
| 2026-04-18 08:24 | 47.28225 | 11.49783 | 4220 ft | 313 kts | 257° |
| 2026-04-18 08:25 | 47.27765 | 11.46730 | 3819 ft | 297 kts | 257° |
| 2026-04-18 08:25 | 47.27327 | 11.43820 | 3369 ft | 284 kts | 257° |
| 2026-04-18 08:25 | 47.26911 | 11.41062 | 2898 ft | 267 kts | 257° |
| 2026-04-18 08:25 | 47.26510 | 11.38502 | 2358 ft | 243 kts | 256° |
| 2026-04-18 08:26 | 47.26201 | 11.36215 | 2017 ft | 217 kts | 264° |
| 2026-04-18 08:26 | 47.26004 | 11.34233 | 3254 ft | 349 kts | 259° |
| 2026-04-18 08:26 | 47.25605 | 11.31399 | 5725 ft | 242 kts | 258° |
| 2026-04-18 08:26 | 47.25512 | 11.29122 | 5234 ft | 214 kts | 275° |